createdAt,value
2022-10-16T00:01:34.376Z,8.70
2022-10-16T00:04:01.773Z,8.70
2022-10-16T00:06:29.740Z,8.60
2022-10-16T00:08:57.416Z,8.50
2022-10-16T00:11:27.275Z,8.50
2022-10-16T00:13:58.017Z,8.50
2022-10-16T00:16:25.258Z,8.50
2022-10-16T00:18:52.391Z,8.50
2022-10-16T00:21:23.557Z,8.60
2022-10-16T00:23:56.350Z,8.70
2022-10-16T00:26:23.827Z,8.80
2022-10-16T00:28:52.082Z,8.80
2022-10-16T00:31:21.659Z,8.80
2022-10-16T00:33:49.789Z,9.00
2022-10-16T00:36:19.787Z,9.10
2022-10-16T00:38:47.218Z,9.20
2022-10-16T00:41:17.471Z,9.20
2022-10-16T00:43:47.355Z,9.30
2022-10-16T00:46:31.118Z,9.40
2022-10-16T00:48:58.358Z,9.40
2022-10-16T00:51:32.313Z,9.40
2022-10-16T00:54:00.075Z,9.40
2022-10-16T00:56:27.484Z,9.50
2022-10-16T00:58:54.806Z,9.60
2022-10-16T01:01:22.373Z,9.60
2022-10-16T01:03:49.586Z,9.60
2022-10-16T01:06:28.855Z,9.50
2022-10-16T01:09:22.199Z,9.50
2022-10-16T01:12:02.031Z,9.60
2022-10-16T01:14:49.365Z,9.60
2022-10-16T01:17:44.648Z,9.50
2022-10-16T01:20:25.707Z,9.50
2022-10-16T01:23:07.776Z,9.40
2022-10-16T01:26:05.864Z,9.30
2022-10-16T01:28:45.340Z,9.30
2022-10-16T01:31:18.255Z,9.20
2022-10-16T01:33:51.933Z,9.10
2022-10-16T01:36:32.177Z,9.10
2022-10-16T01:39:03.014Z,9.10
2022-10-16T01:41:38.088Z,9.00
2022-10-16T01:44:18.435Z,9.10
2022-10-16T01:46:48.578Z,9.00
2022-10-16T01:49:17.053Z,9.10
2022-10-16T01:51:48.527Z,9.30
2022-10-16T01:54:17.546Z,9.20
2022-10-16T01:56:45.511Z,9.10
2022-10-16T01:59:16.711Z,9.00
2022-10-16T02:01:49.782Z,8.90
2022-10-16T02:04:28.068Z,8.80
2022-10-16T02:06:55.816Z,8.70
2022-10-16T02:09:23.130Z,8.80
2022-10-16T02:11:54.856Z,8.70
2022-10-16T02:14:25.663Z,8.60
2022-10-16T02:16:53.064Z,8.60
2022-10-16T02:19:21.663Z,8.60
2022-10-16T02:21:58.471Z,8.60
2022-10-16T02:24:34.751Z,8.70
2022-10-16T02:27:06.952Z,8.70
2022-10-16T02:29:38.771Z,8.60
2022-10-16T02:32:08.719Z,8.60
2022-10-16T02:34:37.337Z,8.60
2022-10-16T02:37:06.273Z,8.50
2022-10-16T02:39:34.676Z,8.50
2022-10-16T02:42:02.297Z,8.50
2022-10-16T02:44:29.550Z,8.50
2022-10-16T02:46:56.639Z,8.60
2022-10-16T02:49:23.787Z,8.50
2022-10-16T02:51:50.911Z,8.50
2022-10-16T02:54:18.099Z,8.50
2022-10-16T02:56:45.219Z,8.50
2022-10-16T02:59:12.344Z,8.60
2022-10-16T03:01:39.484Z,8.70
2022-10-16T03:04:06.711Z,8.60
2022-10-16T03:06:34.070Z,8.60
2022-10-16T03:09:01.230Z,8.60
2022-10-16T03:11:29.206Z,8.60
2022-10-16T03:13:56.292Z,8.60
2022-10-16T03:16:23.391Z,8.60
2022-10-16T03:18:50.960Z,8.70
2022-10-16T03:21:18.216Z,8.80
2022-10-16T03:23:45.384Z,8.80
2022-10-16T03:26:12.496Z,8.90
2022-10-16T03:28:39.759Z,9.00
2022-10-16T03:31:06.955Z,9.00
2022-10-16T03:33:34.097Z,8.90
2022-10-16T03:36:01.370Z,8.80
2022-10-16T03:38:28.477Z,8.70
2022-10-16T03:40:55.584Z,8.60
2022-10-16T03:43:22.732Z,8.60
2022-10-16T03:45:52.517Z,8.60
2022-10-16T03:48:20.711Z,8.70
2022-10-16T03:50:49.377Z,8.70
2022-10-16T03:53:17.015Z,8.80
2022-10-16T03:55:44.451Z,8.80
2022-10-16T03:58:12.398Z,8.80
2022-10-16T04:00:43.935Z,8.80
2022-10-16T04:03:12.119Z,8.90
2022-10-16T04:05:40.659Z,8.90
2022-10-16T04:08:07.831Z,8.90
2022-10-16T04:10:34.943Z,9.00
2022-10-16T04:13:02.116Z,9.10
2022-10-16T04:15:29.282Z,9.00
2022-10-16T04:17:56.449Z,9.00
2022-10-16T04:20:23.715Z,8.90
2022-10-16T04:22:50.844Z,8.90
2022-10-16T04:25:17.926Z,8.80
2022-10-16T04:27:46.141Z,8.80
2022-10-16T04:30:14.253Z,8.70
2022-10-16T04:32:42.075Z,8.60
2022-10-16T04:35:09.681Z,8.60
2022-10-16T04:37:36.781Z,8.50
2022-10-16T04:40:04.376Z,8.50
2022-10-16T04:42:31.459Z,8.50
2022-10-16T04:44:58.630Z,8.40
2022-10-16T04:47:25.985Z,8.40
2022-10-16T04:49:53.247Z,8.40
2022-10-16T04:52:22.451Z,8.40
2022-10-16T04:54:51.249Z,8.30
2022-10-16T04:57:18.748Z,8.30
2022-10-16T04:59:45.941Z,8.20
2022-10-16T05:02:13.087Z,8.10
2022-10-16T05:04:40.338Z,8.10
2022-10-16T05:07:07.552Z,8.10
2022-10-16T05:09:34.664Z,8.20
2022-10-16T05:12:01.791Z,8.10
2022-10-16T05:14:28.956Z,8.10
2022-10-16T05:16:56.151Z,8.10
2022-10-16T05:19:27.352Z,8.10
2022-10-16T05:21:55.119Z,8.20
2022-10-16T05:24:22.285Z,8.20
2022-10-16T05:26:49.456Z,8.30
2022-10-16T05:29:16.626Z,8.30
2022-10-16T05:31:43.866Z,8.30
2022-10-16T05:34:11.263Z,8.30
2022-10-16T05:36:38.432Z,8.30
2022-10-16T05:39:05.579Z,8.30
2022-10-16T05:41:32.867Z,8.30
2022-10-16T05:43:59.983Z,8.30
2022-10-16T05:46:27.120Z,8.30
2022-10-16T05:48:54.408Z,8.30
2022-10-16T05:51:21.607Z,8.40
2022-10-16T05:53:48.731Z,8.50
2022-10-16T05:56:16.155Z,8.50
2022-10-16T05:58:45.198Z,8.70
2022-10-16T06:01:17.913Z,8.60
2022-10-16T06:03:45.416Z,8.60
2022-10-16T06:06:17.741Z,8.60
2022-10-16T06:08:48.871Z,8.60
2022-10-16T06:11:22.132Z,8.50
2022-10-16T06:13:53.947Z,8.50
2022-10-16T06:16:21.482Z,8.60
2022-10-16T06:18:48.618Z,8.60
2022-10-16T06:21:19.590Z,8.60
2022-10-16T06:23:47.155Z,8.60
2022-10-16T06:26:17.190Z,8.70
2022-10-16T06:28:44.665Z,8.70
2022-10-16T06:31:12.872Z,8.80
2022-10-16T06:33:40.948Z,8.90
2022-10-16T06:36:10.540Z,9.10
2022-10-16T06:38:38.824Z,9.10
2022-10-16T06:41:07.436Z,9.30
2022-10-16T06:43:37.722Z,9.40
2022-10-16T06:46:08.712Z,9.40
2022-10-16T06:48:36.224Z,9.60
2022-10-16T06:51:10.388Z,9.60
2022-10-16T06:53:54.588Z,9.70
2022-10-16T06:56:28.664Z,9.80
2022-10-16T06:58:56.441Z,10.00
2022-10-16T07:01:25.151Z,10.00
2022-10-16T07:03:53.376Z,10.10
2022-10-16T07:06:22.603Z,10.20
2022-10-16T07:08:50.063Z,10.30
2022-10-16T07:11:19.687Z,10.40
2022-10-16T07:13:51.068Z,10.50
2022-10-16T07:16:24.900Z,10.60
2022-10-16T07:18:55.413Z,10.70
2022-10-16T07:21:23.965Z,10.80
2022-10-16T07:24:02.308Z,10.90
2022-10-16T07:26:32.096Z,11.00
2022-10-16T07:28:59.476Z,11.10
2022-10-16T07:31:26.663Z,11.20
2022-10-16T07:33:54.215Z,11.20
2022-10-16T07:36:22.175Z,11.40
2022-10-16T07:38:51.031Z,11.50
2022-10-16T07:41:21.067Z,11.60
2022-10-16T07:43:53.513Z,11.70
2022-10-16T07:46:22.516Z,11.90
2022-10-16T07:48:50.041Z,12.00
2022-10-16T07:51:19.808Z,12.20
2022-10-16T07:53:47.963Z,12.30
2022-10-16T07:56:16.237Z,12.40
2022-10-16T07:58:44.101Z,12.50
2022-10-16T08:01:14.706Z,12.70
2022-10-16T08:03:47.351Z,12.90
2022-10-16T08:06:15.243Z,13.00
2022-10-16T08:08:42.538Z,13.10
2022-10-16T08:11:09.868Z,13.30
2022-10-16T08:13:39.846Z,13.40
2022-10-16T08:16:10.873Z,13.50
2022-10-16T08:18:40.110Z,13.60
2022-10-16T08:21:09.236Z,13.80
2022-10-16T08:23:36.517Z,13.90
2022-10-16T08:26:07.178Z,14.00
2022-10-16T08:28:35.320Z,14.10
2022-10-16T08:31:11.131Z,14.30
2022-10-16T08:33:41.663Z,14.30
2022-10-16T08:36:11.116Z,14.50
2022-10-16T08:38:39.274Z,14.50
2022-10-16T08:41:45.222Z,14.70
2022-10-16T08:44:55.651Z,14.80
2022-10-16T08:47:36.758Z,14.90
2022-10-16T08:50:12.869Z,15.10
2022-10-16T08:52:43.110Z,15.30
2022-10-16T08:55:38.460Z,15.40
2022-10-16T08:58:20.402Z,15.50
2022-10-16T09:00:56.875Z,15.70
2022-10-16T09:03:46.902Z,15.80
2022-10-16T09:06:47.391Z,15.90
2022-10-16T09:09:20.620Z,16.10
2022-10-16T09:11:50.842Z,16.20
2022-10-16T09:14:44.307Z,16.30
2022-10-16T09:17:31.099Z,16.40
2022-10-16T09:20:23.860Z,16.50
2022-10-16T09:22:58.055Z,16.70
2022-10-16T09:25:25.251Z,16.80
2022-10-16T09:27:55.111Z,16.90
2022-10-16T09:30:23.935Z,17.00
2022-10-16T09:32:53.752Z,17.10
2022-10-16T09:35:25.753Z,17.20
2022-10-16T09:37:54.646Z,17.20
2022-10-16T09:40:38.107Z,17.30
2022-10-16T09:43:24.325Z,17.40
2022-10-16T09:46:09.375Z,17.60
2022-10-16T09:48:49.563Z,17.80
2022-10-16T09:51:24.236Z,17.80
2022-10-16T09:53:56.987Z,17.90
2022-10-16T09:56:36.520Z,18.10
2022-10-16T09:59:14.738Z,18.20
2022-10-16T10:01:53.396Z,18.20
2022-10-16T10:04:22.391Z,18.20
2022-10-16T10:06:53.996Z,18.30
2022-10-16T10:09:36.275Z,18.40
2022-10-16T10:12:05.433Z,18.50
2022-10-16T10:14:39.172Z,18.60
2022-10-16T10:17:06.272Z,18.70
2022-10-16T10:19:48.826Z,18.80
2022-10-16T10:22:26.601Z,18.90
2022-10-16T10:25:13.914Z,18.90
2022-10-16T10:28:18.932Z,19.10
2022-10-16T10:31:13.963Z,19.10
2022-10-16T10:33:53.074Z,19.20
2022-10-16T10:36:37.820Z,19.20
2022-10-16T10:42:29.103Z,19.30
2022-10-16T10:45:05.349Z,19.30
2022-10-16T10:47:57.622Z,19.40
2022-10-16T10:50:46.636Z,19.40
2022-10-16T10:53:35.130Z,19.50
2022-10-16T10:56:43.934Z,19.60
2022-10-16T10:59:16.635Z,19.60
2022-10-16T11:02:10.849Z,19.70
2022-10-16T11:05:16.621Z,19.70
2022-10-16T11:07:57.926Z,19.90
2022-10-16T11:10:58.798Z,19.90
2022-10-16T11:13:37.626Z,19.90
2022-10-16T11:16:21.540Z,20.00
2022-10-16T11:18:56.215Z,20.10
2022-10-16T11:21:28.808Z,20.10
2022-10-16T11:24:04.351Z,20.20
2022-10-16T11:26:43.270Z,20.30
2022-10-16T11:29:19.542Z,20.30
2022-10-16T11:31:54.320Z,20.30
2022-10-16T11:34:24.213Z,20.40
2022-10-16T11:36:54.296Z,20.40
2022-10-16T11:39:27.971Z,20.40
2022-10-16T11:42:13.228Z,20.40
2022-10-16T11:45:07.942Z,20.40
2022-10-16T11:48:00.254Z,20.40
2022-10-16T11:50:42.987Z,20.40
2022-10-16T11:53:12.826Z,20.40
2022-10-16T11:55:46.976Z,20.40
2022-10-16T11:58:25.392Z,20.60
2022-10-16T12:00:57.592Z,20.60
2022-10-16T12:03:30.804Z,20.50
2022-10-16T12:06:25.457Z,20.60
2022-10-16T12:08:54.556Z,20.60
2022-10-16T12:11:24.748Z,20.70
2022-10-16T12:13:53.411Z,20.70
2022-10-16T12:16:25.094Z,20.70
2022-10-16T12:19:10.251Z,20.80
2022-10-16T12:21:37.717Z,20.70
2022-10-16T12:24:06.077Z,20.70
2022-10-16T12:26:39.059Z,20.60
2022-10-16T12:29:40.419Z,20.70
2022-10-16T12:32:51.773Z,20.70
2022-10-16T12:35:28.382Z,20.80
2022-10-16T12:38:05.562Z,20.80
2022-10-16T12:40:35.568Z,20.80
2022-10-16T12:43:14.070Z,20.70
2022-10-16T12:45:41.364Z,20.80
2022-10-16T12:48:21.699Z,20.80
2022-10-16T12:50:48.923Z,20.80
2022-10-16T12:53:27.351Z,20.80
2022-10-16T12:56:21.244Z,20.80
2022-10-16T12:59:29.574Z,20.70
2022-10-16T13:02:24.062Z,20.70
2022-10-16T13:05:09.786Z,20.70
2022-10-16T13:08:02.206Z,20.70
2022-10-16T13:10:42.016Z,20.70
2022-10-16T13:13:12.014Z,20.70
2022-10-16T13:16:16.845Z,20.70
2022-10-16T13:18:44.058Z,20.70
2022-10-16T13:21:26.927Z,20.60
2022-10-16T13:24:22.709Z,20.60
2022-10-16T13:27:26.474Z,20.60
2022-10-16T13:30:01.255Z,20.60
2022-10-16T13:32:29.110Z,20.50
2022-10-16T13:34:56.707Z,20.50
2022-10-16T13:37:25.634Z,20.50
2022-10-16T13:40:08.649Z,20.50
2022-10-16T13:42:35.931Z,20.40
2022-10-16T13:45:03.049Z,20.40
2022-10-16T13:47:31.270Z,20.40
2022-10-16T13:50:10.255Z,20.40
2022-10-16T13:52:38.194Z,20.40
2022-10-16T13:55:16.720Z,20.40
2022-10-16T13:57:44.270Z,20.40
2022-10-16T14:00:33.247Z,20.40
2022-10-16T14:03:05.567Z,20.30
2022-10-16T14:05:33.237Z,20.30
2022-10-16T14:08:01.231Z,20.30
2022-10-16T14:10:33.416Z,20.20
2022-10-16T14:13:06.147Z,20.20
2022-10-16T14:15:35.658Z,20.20
2022-10-16T14:18:03.670Z,20.10
2022-10-16T14:20:34.135Z,20.10
2022-10-16T14:23:20.025Z,20.00
2022-10-16T14:25:47.685Z,20.00
2022-10-16T14:28:23.023Z,20.00
2022-10-16T14:30:59.011Z,19.90
2022-10-16T14:33:29.803Z,19.80
2022-10-16T14:36:14.314Z,19.80
2022-10-16T14:38:48.644Z,19.80
2022-10-16T14:41:16.423Z,19.80
2022-10-16T14:43:47.480Z,19.70
2022-10-16T14:49:00.866Z,19.60
2022-10-16T14:51:28.586Z,19.50
2022-10-16T14:54:00.021Z,19.40
2022-10-16T14:56:33.267Z,19.40
2022-10-16T14:59:01.783Z,19.30
2022-10-16T15:01:28.894Z,19.20
2022-10-16T15:03:56.222Z,19.20
2022-10-16T15:06:23.469Z,19.10
2022-10-16T15:08:50.633Z,19.00
2022-10-16T15:11:19.939Z,18.90
2022-10-16T15:13:47.643Z,18.90
2022-10-16T15:16:17.473Z,18.80
2022-10-16T15:18:44.641Z,18.70
2022-10-16T15:21:37.832Z,18.60
2022-10-16T15:24:14.297Z,18.50
2022-10-16T15:26:44.011Z,18.40
2022-10-16T15:29:11.148Z,18.40
2022-10-16T15:31:38.518Z,18.30
2022-10-16T15:34:06.982Z,18.20
2022-10-16T15:36:37.696Z,18.00
2022-10-16T15:39:23.032Z,17.80
2022-10-16T15:41:52.307Z,17.60
2022-10-16T15:44:20.879Z,17.40
2022-10-16T15:46:48.505Z,17.20
2022-10-16T15:49:15.899Z,17.00
2022-10-16T15:51:43.685Z,16.90
2022-10-16T15:54:10.965Z,16.70
2022-10-16T15:56:38.364Z,16.50
2022-10-16T15:59:06.255Z,16.40
2022-10-16T16:01:37.142Z,16.20
2022-10-16T16:04:10.832Z,16.10
2022-10-16T16:06:45.813Z,16.00
2022-10-16T16:09:14.710Z,15.80
2022-10-16T16:11:42.966Z,15.70
2022-10-16T16:14:16.553Z,15.50
2022-10-16T16:16:43.819Z,15.40
2022-10-16T16:19:11.844Z,15.30
2022-10-16T16:21:39.583Z,15.10
2022-10-16T16:24:09.409Z,15.00
2022-10-16T16:26:40.467Z,14.90
2022-10-16T16:29:10.061Z,14.80
2022-10-16T16:31:37.872Z,14.70
2022-10-16T16:34:05.550Z,14.70
2022-10-16T16:36:33.003Z,14.80
2022-10-16T16:39:00.266Z,14.60
2022-10-16T16:41:29.488Z,14.60
2022-10-16T16:44:01.896Z,14.40
2022-10-16T16:46:29.011Z,14.20
2022-10-16T16:48:56.563Z,14.20
2022-10-16T16:51:23.747Z,14.10
2022-10-16T16:53:53.087Z,14.00
2022-10-16T16:56:21.639Z,13.90
2022-10-16T16:58:50.173Z,13.80
2022-10-16T17:01:20.687Z,13.60
2022-10-16T17:03:51.212Z,13.50
2022-10-16T17:06:21.090Z,13.50
2022-10-16T17:08:50.619Z,13.50
2022-10-16T17:11:27.154Z,13.50
2022-10-16T17:13:56.976Z,13.50
2022-10-16T17:16:33.614Z,13.50
2022-10-16T17:19:03.470Z,13.40
2022-10-16T17:21:32.802Z,13.20
2022-10-16T17:24:01.063Z,13.00
2022-10-16T17:26:28.846Z,13.00
2022-10-16T17:28:58.397Z,12.90
2022-10-16T17:31:29.456Z,12.80
2022-10-16T17:33:57.796Z,12.80
2022-10-16T17:36:25.612Z,12.70
2022-10-16T17:38:52.802Z,12.70
2022-10-16T17:41:23.076Z,12.70
2022-10-16T17:43:51.751Z,12.80
2022-10-16T17:46:22.241Z,12.70
2022-10-16T17:48:51.556Z,12.70
2022-10-16T17:51:20.708Z,12.60
2022-10-16T17:53:56.529Z,12.60
2022-10-16T17:56:25.378Z,12.50
2022-10-16T17:58:54.975Z,12.40
2022-10-16T18:01:25.052Z,12.30
2022-10-16T18:03:54.535Z,12.20
2022-10-16T18:06:22.986Z,12.20
2022-10-16T18:08:51.873Z,12.10
2022-10-16T18:11:20.411Z,12.00
2022-10-16T18:13:48.223Z,12.00
2022-10-16T18:16:16.233Z,12.00
2022-10-16T18:18:47.947Z,11.90
2022-10-16T18:21:17.603Z,11.80
2022-10-16T18:23:50.786Z,11.80
2022-10-16T18:26:20.850Z,11.80
2022-10-16T18:28:49.199Z,11.80
2022-10-16T18:31:17.634Z,11.70
2022-10-16T18:33:50.246Z,11.60
2022-10-16T18:36:30.396Z,11.60
2022-10-16T18:38:58.568Z,11.70
2022-10-16T18:41:26.902Z,11.70
2022-10-16T18:43:54.789Z,11.70
2022-10-16T18:46:25.944Z,11.60
2022-10-16T18:48:54.422Z,11.50
2022-10-16T18:51:36.169Z,11.50
2022-10-16T18:54:09.071Z,11.40
2022-10-16T18:56:36.373Z,11.40
2022-10-16T18:59:06.314Z,11.30
2022-10-16T19:01:36.011Z,11.30
2022-10-16T19:04:06.531Z,11.20
2022-10-16T19:06:36.775Z,11.20
2022-10-16T19:09:05.096Z,11.30
2022-10-16T19:11:34.127Z,11.30
2022-10-16T19:14:06.360Z,11.30
2022-10-16T19:16:35.817Z,11.20
2022-10-16T19:19:07.225Z,11.10
2022-10-16T19:21:37.091Z,11.10
2022-10-16T19:24:04.693Z,11.10
2022-10-16T19:26:34.791Z,11.10
2022-10-16T19:29:05.296Z,11.00
2022-10-16T19:31:33.004Z,11.00
2022-10-16T19:34:03.284Z,10.90
2022-10-16T19:36:35.796Z,10.90
2022-10-16T19:39:08.588Z,10.90
2022-10-16T19:41:37.574Z,10.80
2022-10-16T19:44:07.608Z,10.80
2022-10-16T19:46:35.961Z,10.80
2022-10-16T19:49:06.119Z,10.70
2022-10-16T19:51:34.048Z,10.70
2022-10-16T19:54:06.998Z,10.70
2022-10-16T19:56:35.292Z,10.60
2022-10-16T19:59:03.294Z,10.60
2022-10-16T20:01:31.927Z,10.60
2022-10-16T20:03:59.566Z,10.90
2022-10-16T20:06:26.836Z,10.80
2022-10-16T20:08:55.426Z,10.80
2022-10-16T20:11:25.374Z,10.80
2022-10-16T20:13:52.520Z,10.90
2022-10-16T20:16:20.377Z,11.10
2022-10-16T20:18:49.707Z,11.10
2022-10-16T20:21:19.335Z,11.10
2022-10-16T20:23:48.692Z,10.90
2022-10-16T20:26:16.867Z,10.70
2022-10-16T20:28:44.692Z,10.70
2022-10-16T20:31:18.232Z,10.50
2022-10-16T20:33:45.768Z,10.50
2022-10-16T20:36:15.118Z,10.50
2022-10-16T20:38:43.069Z,10.40
2022-10-16T20:41:11.149Z,10.30
2022-10-16T20:46:20.196Z,10.20
2022-10-16T20:48:47.638Z,10.10
2022-10-16T20:51:29.343Z,10.20
2022-10-16T20:53:58.700Z,10.10
2022-10-16T20:56:27.941Z,10.10
2022-10-16T20:58:55.107Z,10.20
2022-10-16T21:01:25.464Z,10.20
2022-10-16T21:03:58.767Z,10.10
2022-10-16T21:06:26.596Z,10.00
2022-10-16T21:08:53.875Z,9.90
2022-10-16T21:11:24.072Z,9.90
2022-10-16T21:13:58.551Z,9.90
2022-10-16T21:16:26.653Z,9.80
2022-10-16T21:18:54.361Z,10.00
2022-10-16T21:21:28.551Z,10.10
2022-10-16T21:23:57.476Z,10.20
2022-10-16T21:26:26.541Z,10.10
2022-10-16T21:28:58.618Z,10.10
2022-10-16T21:31:26.291Z,10.10
2022-10-16T21:33:55.262Z,10.00
2022-10-16T21:36:28.573Z,10.00
2022-10-16T21:38:56.672Z,10.00
2022-10-16T21:41:28.848Z,9.90
2022-10-16T21:43:57.171Z,9.80
2022-10-16T21:46:27.281Z,9.80
2022-10-16T21:48:55.809Z,9.80
2022-10-16T21:51:27.332Z,9.80
2022-10-16T21:53:55.017Z,9.90
2022-10-16T21:56:23.249Z,9.90
2022-10-16T21:58:50.447Z,9.90
2022-10-16T22:01:19.725Z,9.70
2022-10-16T22:03:48.011Z,9.60
2022-10-16T22:06:17.830Z,9.50
2022-10-16T22:08:47.790Z,9.50
2022-10-16T22:11:22.276Z,9.50
2022-10-16T22:13:54.154Z,9.50
2022-10-16T22:16:26.462Z,9.40
2022-10-16T22:18:55.868Z,9.40
2022-10-16T22:21:23.595Z,9.50
2022-10-16T22:23:50.928Z,9.50
2022-10-16T22:26:18.370Z,9.50
2022-10-16T22:28:45.626Z,9.60
2022-10-16T22:31:14.668Z,9.50
2022-10-16T22:33:42.188Z,9.50
2022-10-16T22:36:12.876Z,9.50
2022-10-16T22:38:40.438Z,9.50
2022-10-16T22:41:13.355Z,9.40
2022-10-16T22:43:45.239Z,9.40
2022-10-16T22:46:15.623Z,9.30
2022-10-16T22:48:43.570Z,9.30
2022-10-16T22:51:16.578Z,9.20
2022-10-16T22:53:46.041Z,9.20
2022-10-16T22:56:14.868Z,9.10
2022-10-16T22:58:42.290Z,9.10
2022-10-16T23:01:20.182Z,9.10
2022-10-16T23:03:47.411Z,9.20
2022-10-16T23:06:15.140Z,9.20
2022-10-16T23:08:42.323Z,9.20
2022-10-16T23:11:14.126Z,9.20
2022-10-16T23:13:45.684Z,9.20
2022-10-16T23:16:15.794Z,9.10
2022-10-16T23:18:44.435Z,9.10
2022-10-16T23:21:18.702Z,9.10
2022-10-16T23:23:45.907Z,9.20
2022-10-16T23:26:21.909Z,9.20
2022-10-16T23:28:49.434Z,9.20
2022-10-16T23:31:17.852Z,9.20
2022-10-16T23:33:45.579Z,9.10
2022-10-16T23:36:19.536Z,9.10
2022-10-16T23:38:48.084Z,9.10
2022-10-16T23:41:16.122Z,9.10
2022-10-16T23:43:43.224Z,9.10
2022-10-16T23:46:11.650Z,9.10
2022-10-16T23:48:39.714Z,9.00
2022-10-16T23:51:08.182Z,8.90
2022-10-16T23:53:35.503Z,8.80
2022-10-16T23:56:03.345Z,8.80
2022-10-16T23:58:30.941Z,8.70
